Latest Weather Observations for Double Island Point

IDQ60801

Issued at 11:02 pm EST Friday 27 March 2015 (issued every 30 minutes, with the page automatically refreshed every 10 minutes)

About weather observations | Map of weather stations | Latest weather observations for QLD | Other Formats
Station Details ID: 040068 Name: DOUBLE ISLAND POINT LIGHTHOUSE Lat: -25.93 Lon: 153.19 Height: 95.64 m
Data from the previous 72 hours. | See also: Recent months at Double Island Point
Date/Time
EST
Temp
°C
App
Temp
°C
Dew
Point
Rel
Hum
%
Delta-T
°C
Wind Press
QNH
hPa
Press
MSL
hPa
Rain
since 9 am
mm
Dir
 
Spd
km/h
Gust
km/h
Spd
kts
Gust
kts
27/11:00pm 24.9 26.6 21.0 79 2.6 NNE 13 17 7 9 1018.4 1017.9 0.0
27/10:30pm 25.1 27.2 21.0 78 2.7 NNE 11 17 6 9 1018.6 1018.1 0.0
27/10:00pm 25.5 28.1 21.2 77 2.8 NE 9 15 5 8 1018.9 1018.4 0.0
27/09:30pm 25.5 28.0 21.0 76 3.0 NE 9 13 5 7 1018.9 1018.4 0.0
27/09:00pm 25.7 27.1 21.1 76 3.0 ENE 15 19 8 10 1018.6 1018.1 0.0
27/08:30pm 25.8 27.3 21.2 76 3.1 ENE 15 17 8 9 1018.5 1018.0 0.0
27/08:00pm 25.8 27.6 21.2 76 3.0 ENE 13 19 7 10 1018.5 1018.0 0.0
27/07:30pm 25.9 27.4 21.3 76 3.1 NE 15 20 8 11 1018.2 1017.7 0.0
27/07:00pm 25.9 28.0 20.9 74 3.3 NE 11 17 6 9 1017.7 1017.2 0.0
27/06:30pm 26.1 28.6 21.1 74 3.3 NNE 9 15 5 8 1017.3 1016.8 0.0
27/06:00pm 26.0 27.3 20.8 73 3.4 NE 15 20 8 11 1016.8 1016.3 0.0
27/05:30pm 26.5 28.2 21.0 72 3.6 NNE 13 20 7 11 1016.5 1016.0 0.0
27/05:00pm 26.8 27.5 20.4 68 4.2 NNE 17 22 9 12 1016.4 1015.9 0.0
27/04:30pm 27.1 28.7 20.7 68 4.2 NNE 13 19 7 10 1016.1 1015.6 0.0
27/04:00pm 27.4 28.7 20.2 65 4.7 NNE 13 20 7 11 1015.9 1015.4 0.0
27/03:30pm 29.0 31.0 20.7 61 5.5 NE 11 19 6 10 1015.8 1015.3 0.0
27/03:00pm 29.8 31.9 20.1 56 6.4 NE 9 15 5 8 1016.0 1015.5 0.0
27/02:30pm 32.0 34.4 21.5 53 7.1 NNE 11 19 6 10 1016.0 1015.5 0.0
27/02:00pm 30.7 32.5 21.2 57 6.4 NNE 13 19 7 10 1016.1 1015.6 0.0
27/01:30pm 31.4 32.6 20.7 53 7.2 NNE 15 20 8 11 1016.6 1016.1 0.0
27/01:00pm 31.2 31.7 20.8 54 7.0 NNE 19 22 10 12 1016.9 1016.4 0.0
27/12:30pm 32.7 34.1 21.9 53 7.4 NNE 17 20 9 11 1017.4 1016.9 0.0
27/12:00pm 30.6 31.9 21.7 59 6.0 NNE 17 20 9 11 1017.9 1017.4 0.0
27/11:30am 32.0 35.1 21.5 53 7.1 N 7 15 4 8 1018.4 1017.9 0.0
27/11:00am 31.3 34.7 22.0 57 6.3 N 7 11 4 6 1018.8 1018.3 0.0
27/10:30am 29.7 32.0 21.4 61 5.6 N 11 20 6 11 1019.2 1018.7 0.0
27/10:00am 31.0 33.3 22.0 58 6.1 NNW 13 20 7 11 1019.4 1018.9 0.0
27/09:30am 29.2 31.1 21.4 63 5.2 NNW 13 17 7 9 1019.5 1019.0 0.0
27/09:00am 28.8 29.8 21.0 62 5.2 NNW 17 22 9 12 1019.4 1018.9 0.0
27/08:30am 28.3 29.1 21.3 65 4.7 NNW 19 26 10 14 1019.4 1018.9 0.0
27/08:00am 27.2 27.6 21.0 69 4.1 NNW 20 24 11 13 1019.2 1018.7 0.0
27/07:30am 26.3 26.8 21.1 73 3.4 NNW 20 26 11 14 1019.0 1018.5 0.0
27/07:00am 25.8 26.8 21.0 75 3.2 NNW 17 28 9 15 1018.8 1018.3 0.0
27/06:30am 24.7 26.1 21.0 80 2.4 NNW 15 24 8 13 1018.5 1018.0 0.0
27/06:00am 24.3 26.0 21.0 82 2.2 NNW 13 22 7 12 1017.9 1017.4 0.0
27/05:30am 24.3 26.0 21.0 82 2.2 NNW 13 20 7 11 1017.8 1017.3 0.0
27/05:00am 24.6 25.5 21.5 83 2.1 NNW 19 26 10 14 1017.6 1017.1 0.0
27/04:30am 24.4 26.7 21.3 83 2.1 N 11 20 6 11 1017.3 1016.8 0.0
27/04:00am 24.4 26.6 21.1 82 2.2 N 11 19 6 10 1017.1 1016.6 0.0
27/03:30am 24.6 26.9 21.3 82 2.2 N 11 24 6 13 1017.1 1016.6 0.0
27/03:00am 24.7 27.4 21.4 82 2.2 N 9 15 5 8 1017.1 1016.6 0.0
27/02:30am 24.8 26.8 21.5 82 2.2 NNW 13 24 7 13 1017.4 1016.9 0.0
27/02:00am 24.7 27.0 21.4 82 2.2 N 11 19 6 10 1017.5 1017.0 0.0
27/01:30am 24.8 27.2 21.5 82 2.2 N 11 26 6 14 1017.5 1017.0 0.0
27/01:00am 24.8 27.2 21.5 82 2.2 N 11 19 6 10 1017.8 1017.3 0.0
27/12:30am 24.8 26.7 21.3 81 2.3 NNW 13 20 7 11 1018.1 1017.6 0.0
27/12:00am 25.0 27.7 21.3 80 2.4 NNW 9 17 5 9 1018.2 1017.7 0.0
 
Date/Time
EST
Temp
°C
App
Temp
°C
Dew
Point
Rel
Hum
%
Delta-T
°C
Wind Press
QNH
hPa
Press
MSL
hPa
Rain
since 9 am
mm
Dir
 
Spd
km/h
Gust
km/h
Spd
kts
Gust
kts
26/11:30pm 25.4 28.4 21.9 81 2.3 N 9 17 5 9 1018.3 1017.8 0.0
26/11:00pm 25.4 27.6 21.9 81 2.3 NNW 13 20 7 11 1018.4 1017.9 0.0
26/10:30pm 25.5 28.1 22.0 81 2.3 N 11 22 6 12 1018.7 1018.2 0.0
26/10:00pm 25.4 27.2 21.9 81 2.3 N 15 26 8 14 1018.7 1018.2 0.0
26/09:30pm 25.3 26.1 21.8 81 2.3 N 20 32 11 17 1018.6 1018.1 0.0
26/09:00pm 25.4 25.5 21.9 81 2.3 N 24 33 13 18 1018.5 1018.0 0.0
26/08:30pm 25.5 25.6 21.8 80 2.5 N 24 33 13 18 1018.3 1017.8 0.0
26/08:00pm 25.5 24.7 21.6 79 2.6 N 28 35 15 19 1018.1 1017.6 0.0
26/07:30pm 25.6 24.1 21.7 79 2.6 N 32 37 17 20 1017.5 1017.0 0.0
26/07:00pm 25.6 24.1 21.7 79 2.6 NNE 32 37 17 20 1017.4 1016.9 0.0
26/06:30pm 25.7 24.0 21.4 77 2.9 NNE 32 37 17 20 1017.2 1016.7 0.0
26/06:00pm 25.9 24.6 21.3 76 3.1 NNE 30 35 16 19 1016.8 1016.3 0.0
26/05:30pm 26.7 25.3 21.2 72 3.7 NNE 30 35 16 19 1016.3 1015.8 0.0
26/05:00pm 27.1 25.6 20.9 69 4.1 NNE 30 35 16 19 1015.9 1015.4 0.0
26/04:30pm 28.0 27.0 21.3 67 4.5 NNE 28 33 15 18 1015.9 1015.4 0.0
26/04:00pm 28.6 27.5 21.1 64 5.0 NNE 28 32 15 17 1016.0 1015.5 0.0
26/03:30pm 29.6 29.5 21.5 61 5.5 NNE 24 30 13 16 1016.0 1015.5 0.0
26/03:00pm 29.3 28.9 21.0 61 5.5 NNE 24 30 13 16 1016.0 1015.5 0.0
26/02:30pm 28.9 28.3 20.4 60 5.6 NNE 24 28 13 15 1016.4 1015.9 0.0
26/02:00pm 30.7 30.6 21.5 58 6.2 NNE 24 30 13 16 1016.5 1016.0 0.0
26/01:30pm 30.0 30.2 20.5 56 6.3 N 20 28 11 15 1016.9 1016.4 0.0
26/01:00pm 30.2 30.8 21.0 58 6.2 NNE 19 24 10 13 1017.3 1016.8 0.0
26/12:30pm 31.5 32.3 21.7 56 6.6 NNE 20 24 11 13 1017.7 1017.2 0.0
26/12:00pm 30.5 30.9 21.0 57 6.4 NNE 20 26 11 14 1018.2 1017.7 0.0
26/11:30am 30.0 30.3 20.5 56 6.3 N 19 24 10 13 1018.6 1018.1 0.0
26/11:00am 30.1 32.4 20.6 56 6.3 N 9 19 5 10 1018.7 1018.2 0.0
26/10:30am 30.5 33.0 21.0 57 6.4 N 9 13 5 7 1019.0 1018.5 0.0
26/10:00am 30.2 32.2 20.7 56 6.3 N 11 19 6 10 1019.3 1018.8 0.0
26/09:30am 29.5 31.7 21.2 61 5.6 NNW 11 19 6 10 1019.1 1018.6 0.0
26/09:00am 28.5 30.7 20.5 62 5.3 N 9 17 5 9 1019.0 1018.5 0.0
26/08:30am 27.8 30.5 20.6 65 4.8 N 7 11 4 6 1019.0 1018.5 0.0
26/08:00am 27.2 29.7 20.3 66 4.5 N 7 15 4 8 1019.0 1018.5 0.0
26/07:30am 26.1 28.6 20.2 70 3.9 N 7 9 4 5 1018.6 1018.1 0.0
26/07:00am 25.4 28.1 20.2 73 3.4 NNW 6 11 3 6 1018.3 1017.8 0.0
26/06:30am 24.6 27.6 20.1 76 2.9 N 4 9 2 5 1018.0 1017.5 0.0
26/06:00am 24.2 26.5 19.9 77 2.8 N 7 13 4 7 1017.6 1017.1 0.0
26/05:30am 24.1 26.7 20.0 78 2.7 NNE 6 11 3 6 1017.3 1016.8 0.0
26/05:00am 24.1 26.8 20.2 79 2.5 N 6 9 3 5 1017.0 1016.5 0.0
26/04:30am 24.2 26.8 20.5 80 2.4 N 7 13 4 7 1016.8 1016.3 0.0
26/04:00am 24.2 26.8 20.5 80 2.4 NNE 7 11 4 6 1016.5 1016.0 0.0
26/03:30am 24.3 27.0 20.6 80 2.4 NNE 7 13 4 7 1016.3 1015.8 0.0
26/03:00am 24.4 27.1 20.7 80 2.4 N 7 13 4 7 1016.2 1015.7 0.0
26/02:30am 24.4 27.1 20.7 80 2.4 N 7 13 4 7 1016.3 1015.8 0.0
26/02:00am 24.4 27.2 20.9 81 2.3 N 7 11 4 6 1016.2 1015.7 0.0
26/01:30am 24.5 27.1 21.2 82 2.2 N 9 17 5 9 1016.1 1015.6 0.0
26/01:00am 24.5 27.0 21.0 81 2.3 N 9 19 5 10 1016.3 1015.8 0.0
26/12:30am 24.5 27.0 21.0 81 2.3 NNW 9 15 5 8 1016.4 1015.9 0.0
26/12:00am 24.5 26.5 20.8 80 2.4 N 11 20 6 11 1016.4 1015.9 0.0
 
Date/Time
EST
Temp
°C
App
Temp
°C
Dew
Point
Rel
Hum
%
Delta-T
°C
Wind Press
QNH
hPa
Press
MSL
hPa
Rain
since 9 am
mm
Dir
 
Spd
km/h
Gust
km/h
Spd
kts
Gust
kts
25/11:30pm 24.5 26.9 20.8 80 2.4 NNW 9 13 5 7 1016.4 1015.9 0.0
25/11:00pm 24.7 26.8 21.0 80 2.4 NNW 11 17 6 9 1016.8 1016.3 0.0
25/10:30pm 24.8 27.0 21.1 80 2.4 NNW 11 17 6 9 1016.9 1016.4 0.0
25/10:00pm 24.9 27.0 21.0 79 2.6 N 11 19 6 10 1017.0 1016.5 0.0
25/09:30pm 25.0 26.7 20.9 78 2.7 NNW 13 20 7 11 1016.7 1016.2 0.0
25/09:00pm 25.1 25.6 20.8 77 2.8 NNW 19 26 10 14 1016.6 1016.1 0.0
25/08:30pm 25.4 28.4 21.9 81 2.3 NNW 9 13 5 7 1016.4 1015.9 0.0
25/08:00pm 25.4 28.5 22.1 82 2.2 NNW 9 17 5 9 1016.0 1015.5 0.0
25/07:30pm 25.5 28.1 22.0 81 2.3 NNW 11 24 6 13 1015.5 1015.0 0.0
25/07:00pm 25.5 27.8 22.0 81 2.3 NNW 13 26 7 14 1015.4 1014.9 0.0
25/06:30pm 25.7 25.5 22.0 80 2.5 N 26 43 14 23 1015.1 1014.6 0.0
25/06:00pm 25.8 25.5 21.9 79 2.6 N 26 43 14 23 1014.7 1014.2 0.0
25/05:30pm 26.3 23.8 21.7 76 3.1 N 37 44 20 24 1014.4 1013.9 0.0
25/05:00pm 26.8 24.2 21.5 72 3.5 N 37 44 20 24 1014.2 1013.7 0.0
25/04:30pm 27.6 25.1 21.6 70 4.0 NNE 37 43 20 23 1014.0 1013.5 0.0
25/04:00pm 28.1 26.0 21.6 68 4.4 N 35 41 19 22 1014.0 1013.5 0.0
25/03:30pm 28.2 26.0 21.5 67 4.5 NNE 35 43 19 23 1013.9 1013.4 0.0
25/03:00pm 28.6 26.7 21.4 65 4.8 NNE 33 41 18 22 1013.9 1013.4 0.0
25/02:30pm 28.8 27.2 21.6 65 4.8 NNE 32 39 17 21 1014.1 1013.6 0.0
25/02:00pm 29.1 27.5 21.6 64 5.0 N 32 39 17 21 1014.2 1013.7 0.0
25/01:30pm 29.3 28.1 21.5 63 5.2 N 30 37 16 20 1014.4 1013.9 0.0
25/01:00pm 29.5 29.4 21.4 61 5.4 N 24 33 13 18 1014.8 1014.3 0.0
25/12:30pm 29.6 29.8 21.3 61 5.6 N 22 30 12 16 1015.1 1014.6 0.0
25/12:00pm 29.9 30.6 21.6 61 5.6 N 20 26 11 14 1015.5 1015.0 0.0
25/11:30am 30.0 32.2 21.1 59 6.0 N 11 22 6 12 1016.1 1015.6 0.0
25/11:00am 29.7 32.1 20.8 58 5.9 NNW 9 15 5 8 1016.3 1015.8 0.0
25/10:30am 30.3 32.8 21.7 60 5.8 NNW 11 19 6 10 1016.5 1016.0 0.0
25/10:00am 29.5 32.2 21.4 61 5.4 N 9 17 5 9 1016.7 1016.2 0.0
25/09:30am 29.0 31.8 21.5 64 5.0 N 9 15 5 8 1016.8 1016.3 0.0
25/09:00am 28.4 30.9 21.7 67 4.5 NNW 11 19 6 10 1016.9 1016.4 0.0
25/08:30am 27.3 28.6 20.9 68 4.2 NNW 15 20 8 11 1016.9 1016.4 0.0
25/08:00am 26.6 27.8 20.7 70 3.9 NNW 15 22 8 12 1016.7 1016.2 0.0
25/07:30am 26.1 27.5 21.1 74 3.3 NNW 15 22 8 12 1016.3 1015.8 0.0
25/07:00am 25.8 27.5 21.0 75 3.2 NNW 13 20 7 11 1015.9 1015.4 0.0
25/06:30am 24.6 26.2 20.7 79 2.6 NNW 13 20 7 11 1015.7 1015.2 0.0
25/06:00am 24.0 26.2 20.5 81 2.3 N 9 15 5 8 1015.2 1014.7 0.0
25/05:30am 23.9 26.0 20.2 80 2.4 N 9 13 5 7 1015.1 1014.6 0.0
25/05:00am 24.1 26.2 20.2 79 2.5 N 9 17 5 9 1015.0 1014.5 0.0
25/04:30am 24.0 26.1 20.1 79 2.5 N 9 15 5 8 1014.7 1014.2 0.0
25/04:00am 24.0 26.4 20.1 79 2.5 NW 7 13 4 7 1014.2 1013.7 0.0
25/03:30am 23.9 25.9 20.0 79 2.5 N 9 15 5 8 1014.0 1013.5 0.0
25/03:00am 23.9 25.9 20.0 79 2.5 N 9 13 5 7 1013.8 1013.3 0.0
25/02:30am 23.8 26.2 20.1 80 2.4 N 7 11 4 6 1013.9 1013.4 0.0
25/02:00am 23.7 25.3 20.0 80 2.4 NNW 11 17 6 9 1014.2 1013.7 0.0
25/01:30am 23.8 24.1 20.3 81 2.3 NNW 19 28 10 15 1014.4 1013.9 0.0
25/01:00am 24.1 24.7 20.2 79 2.5 NNW 17 32 9 17 1014.6 1014.1 0.0
25/12:30am 24.1 26.3 20.4 80 2.4 N 9 15 5 8 1014.8 1014.3 0.0
25/12:00am 24.1 26.2 20.2 79 2.5 N 9 17 5 9 1014.8 1014.3 0.0
 
Date/Time
EST
Temp
°C
App
Temp
°C
Dew
Point
Rel
Hum
%
Delta-T
°C
Wind Press
QNH
hPa
Press
MSL
hPa
Rain
since 9 am
mm
Dir
 
Spd
km/h
Gust
km/h
Spd
kts
Gust
kts
24/11:30pm 24.2 26.4 20.3 79 2.5 N 9 17 5 9 1015.0 1014.5 0.0

Other Formats:

Comma delimited format used in spreadsheet applications
http://www.bom.gov.au/fwo/IDQ60801/IDQ60801.94584.axf

JavaScript Object Notation format (JSON) in row-major order
http://www.bom.gov.au/fwo/IDQ60801/IDQ60801.94584.json